sensor_id;sensor_type;location;lat;lon;timestamp;P1;durP1;ratioP1;P2;durP2;ratioP2
62401;SDS011;48440;51.224;22.506;2023-07-08T00:01:55;16.42;;;10.38;;
62401;SDS011;48440;51.224;22.506;2023-07-08T00:04:20;15.63;;;10.27;;
62401;SDS011;48440;51.224;22.506;2023-07-08T00:06:46;15.68;;;10.43;;
62401;SDS011;48440;51.224;22.506;2023-07-08T00:09:12;17.48;;;10.15;;
62401;SDS011;48440;51.224;22.506;2023-07-08T00:11:38;15.23;;;9.57;;
62401;SDS011;48440;51.224;22.506;2023-07-08T00:14:03;19.25;;;10.18;;
62401;SDS011;48440;51.224;22.506;2023-07-08T00:16:29;15.23;;;10.00;;
62401;SDS011;48440;51.224;22.506;2023-07-08T00:18:54;16.50;;;9.80;;
62401;SDS011;48440;51.224;22.506;2023-07-08T00:21:20;14.40;;;9.73;;
62401;SDS011;48440;51.224;22.506;2023-07-08T00:23:46;15.40;;;9.50;;
62401;SDS011;48440;51.224;22.506;2023-07-08T00:26:34;11.32;;;9.10;;
62401;SDS011;48440;51.224;22.506;2023-07-08T00:28:58;13.68;;;9.07;;
62401;SDS011;48440;51.224;22.506;2023-07-08T00:31:24;10.60;;;8.10;;
62401;SDS011;48440;51.224;22.506;2023-07-08T00:33:50;13.30;;;8.63;;
62401;SDS011;48440;51.224;22.506;2023-07-08T00:36:17;15.10;;;8.63;;
62401;SDS011;48440;51.224;22.506;2023-07-08T00:38:43;12.38;;;7.97;;
62401;SDS011;48440;51.224;22.506;2023-07-08T00:41:24;12.77;;;8.65;;
62401;SDS011;48440;51.224;22.506;2023-07-08T00:43:54;12.52;;;7.82;;
62401;SDS011;48440;51.224;22.506;2023-07-08T00:52:19;11.63;;;8.35;;
62401;SDS011;48440;51.224;22.506;2023-07-08T00:55:01;12.90;;;7.90;;
62401;SDS011;48440;51.224;22.506;2023-07-08T00:57:32;14.23;;;7.88;;
62401;SDS011;48440;51.224;22.506;2023-07-08T01:02:31;7.22;;;5.68;;
62401;SDS011;48440;51.224;22.506;2023-07-08T01:05:11;10.73;;;7.97;;
62401;SDS011;48440;51.224;22.506;2023-07-08T01:07:38;11.88;;;7.35;;
62401;SDS011;48440;51.224;22.506;2023-07-08T01:10:09;13.43;;;7.80;;
62401;SDS011;48440;51.224;22.506;2023-07-08T01:12:44;12.75;;;7.30;;
62401;SDS011;48440;51.224;22.506;2023-07-08T01:15:14;12.13;;;7.68;;
62401;SDS011;48440;51.224;22.506;2023-07-08T01:17:41;9.45;;;6.70;;
62401;SDS011;48440;51.224;22.506;2023-07-08T01:20:08;10.20;;;6.70;;
62401;SDS011;48440;51.224;22.506;2023-07-08T01:22:38;8.48;;;6.25;;
62401;SDS011;48440;51.224;22.506;2023-07-08T01:25:07;8.52;;;5.95;;
62401;SDS011;48440;51.224;22.506;2023-07-08T01:27:35;10.73;;;7.05;;
62401;SDS011;48440;51.224;22.506;2023-07-08T01:30:04;11.52;;;7.78;;
62401;SDS011;48440;51.224;22.506;2023-07-08T01:32:32;10.15;;;7.38;;
62401;SDS011;48440;51.224;22.506;2023-07-08T01:35:01;11.23;;;6.82;;
62401;SDS011;48440;51.224;22.506;2023-07-08T01:37:38;8.30;;;6.43;;
62401;SDS011;48440;51.224;22.506;2023-07-08T01:40:29;10.55;;;6.35;;
62401;SDS011;48440;51.224;22.506;2023-07-08T01:42:55;9.93;;;6.03;;
62401;SDS011;48440;51.224;22.506;2023-07-08T01:45:21;11.50;;;7.10;;
62401;SDS011;48440;51.224;22.506;2023-07-08T01:47:53;10.10;;;7.10;;
62401;SDS011;48440;51.224;22.506;2023-07-08T01:50:21;13.70;;;7.32;;
62401;SDS011;48440;51.224;22.506;2023-07-08T01:52:48;10.90;;;7.35;;
62401;SDS011;48440;51.224;22.506;2023-07-08T01:55:20;11.60;;;7.20;;
62401;SDS011;48440;51.224;22.506;2023-07-08T01:57:47;11.70;;;7.20;;
62401;SDS011;48440;51.224;22.506;2023-07-08T02:00:12;9.75;;;6.75;;
62401;SDS011;48440;51.224;22.506;2023-07-08T02:02:38;12.80;;;6.68;;
62401;SDS011;48440;51.224;22.506;2023-07-08T02:05:04;10.10;;;6.70;;
62401;SDS011;48440;51.224;22.506;2023-07-08T02:07:29;9.30;;;6.72;;
62401;SDS011;48440;51.224;22.506;2023-07-08T02:09:55;10.40;;;6.93;;
62401;SDS011;48440;51.224;22.506;2023-07-08T02:12:20;8.75;;;6.53;;
62401;SDS011;48440;51.224;22.506;2023-07-08T02:14:45;9.30;;;6.20;;
62401;SDS011;48440;51.224;22.506;2023-07-08T02:17:11;10.27;;;6.93;;
62401;SDS011;48440;51.224;22.506;2023-07-08T02:19:36;10.38;;;6.50;;
62401;SDS011;48440;51.224;22.506;2023-07-08T02:22:01;10.30;;;7.03;;
62401;SDS011;48440;51.224;22.506;2023-07-08T02:24:29;9.23;;;6.45;;
62401;SDS011;48440;51.224;22.506;2023-07-08T02:26:54;12.23;;;6.80;;
62401;SDS011;48440;51.224;22.506;2023-07-08T02:29:20;11.32;;;6.85;;
62401;SDS011;48440;51.224;22.506;2023-07-08T02:31:45;8.85;;;6.40;;
62401;SDS011;48440;51.224;22.506;2023-07-08T02:34:11;9.80;;;6.38;;
62401;SDS011;48440;51.224;22.506;2023-07-08T02:36:37;10.10;;;6.28;;
62401;SDS011;48440;51.224;22.506;2023-07-08T02:39:03;11.27;;;6.13;;
62401;SDS011;48440;51.224;22.506;2023-07-08T02:41:30;8.85;;;6.47;;
62401;SDS011;48440;51.224;22.506;2023-07-08T02:43:56;9.05;;;6.03;;
62401;SDS011;48440;51.224;22.506;2023-07-08T02:46:21;10.40;;;6.15;;
62401;SDS011;48440;51.224;22.506;2023-07-08T02:48:47;7.45;;;5.70;;
62401;SDS011;48440;51.224;22.506;2023-07-08T02:51:12;10.30;;;6.40;;
62401;SDS011;48440;51.224;22.506;2023-07-08T02:53:37;8.82;;;6.18;;
62401;SDS011;48440;51.224;22.506;2023-07-08T02:56:03;10.32;;;6.50;;
62401;SDS011;48440;51.224;22.506;2023-07-08T02:58:28;8.40;;;5.90;;
62401;SDS011;48440;51.224;22.506;2023-07-08T03:00:55;9.25;;;6.00;;
62401;SDS011;48440;51.224;22.506;2023-07-08T03:03:21;11.70;;;6.32;;
62401;SDS011;48440;51.224;22.506;2023-07-08T03:05:57;10.90;;;6.40;;
62401;SDS011;48440;51.224;22.506;2023-07-08T03:08:25;9.55;;;6.13;;
62401;SDS011;48440;51.224;22.506;2023-07-08T03:10:57;8.68;;;5.55;;
62401;SDS011;48440;51.224;22.506;2023-07-08T03:13:25;9.18;;;5.97;;
62401;SDS011;48440;51.224;22.506;2023-07-08T03:15:51;9.23;;;6.22;;
62401;SDS011;48440;51.224;22.506;2023-07-08T03:18:17;8.70;;;6.63;;
62401;SDS011;48440;51.224;22.506;2023-07-08T03:20:43;10.25;;;6.00;;
62401;SDS011;48440;51.224;22.506;2023-07-08T03:23:13;9.25;;;6.15;;
62401;SDS011;48440;51.224;22.506;2023-07-08T03:25:38;8.30;;;5.90;;
62401;SDS011;48440;51.224;22.506;2023-07-08T03:28:04;9.63;;;6.22;;
62401;SDS011;48440;51.224;22.506;2023-07-08T03:30:33;8.32;;;5.80;;
62401;SDS011;48440;51.224;22.506;2023-07-08T03:32:59;10.93;;;6.40;;
62401;SDS011;48440;51.224;22.506;2023-07-08T03:35:25;11.18;;;6.75;;
62401;SDS011;48440;51.224;22.506;2023-07-08T03:37:51;9.23;;;5.97;;
62401;SDS011;48440;51.224;22.506;2023-07-08T03:40:17;11.65;;;6.22;;
62401;SDS011;48440;51.224;22.506;2023-07-08T03:42:42;11.23;;;6.88;;
62401;SDS011;48440;51.224;22.506;2023-07-08T03:45:08;10.40;;;7.00;;
62401;SDS011;48440;51.224;22.506;2023-07-08T03:47:34;10.23;;;7.18;;
62401;SDS011;48440;51.224;22.506;2023-07-08T03:49:59;10.77;;;7.30;;
62401;SDS011;48440;51.224;22.506;2023-07-08T03:52:24;10.68;;;7.20;;
62401;SDS011;48440;51.224;22.506;2023-07-08T03:54:50;14.68;;;7.43;;
62401;SDS011;48440;51.224;22.506;2023-07-08T03:57:15;13.40;;;7.38;;
62401;SDS011;48440;51.224;22.506;2023-07-08T03:59:41;10.52;;;7.15;;
62401;SDS011;48440;51.224;22.506;2023-07-08T04:02:08;10.48;;;7.65;;
62401;SDS011;48440;51.224;22.506;2023-07-08T04:04:36;11.27;;;7.75;;
62401;SDS011;48440;51.224;22.506;2023-07-08T04:07:05;12.77;;;8.43;;
62401;SDS011;48440;51.224;22.506;2023-07-08T04:09:32;13.63;;;8.00;;
62401;SDS011;48440;51.224;22.506;2023-07-08T04:11:58;10.38;;;8.00;;
62401;SDS011;48440;51.224;22.506;2023-07-08T04:14:24;10.20;;;7.20;;
62401;SDS011;48440;51.224;22.506;2023-07-08T04:16:57;9.75;;;7.82;;
62401;SDS011;48440;51.224;22.506;2023-07-08T04:19:24;12.63;;;8.43;;
62401;SDS011;48440;51.224;22.506;2023-07-08T04:21:52;9.63;;;7.75;;
62401;SDS011;48440;51.224;22.506;2023-07-08T04:24:17;8.90;;;7.32;;
62401;SDS011;48440;51.224;22.506;2023-07-08T04:26:44;9.85;;;8.05;;
62401;SDS011;48440;51.224;22.506;2023-07-08T04:29:12;9.82;;;7.32;;
62401;SDS011;48440;51.224;22.506;2023-07-08T04:31:39;12.60;;;8.57;;
62401;SDS011;48440;51.224;22.506;2023-07-08T04:34:06;11.77;;;7.63;;
62401;SDS011;48440;51.224;22.506;2023-07-08T04:36:32;9.57;;;7.25;;
62401;SDS011;48440;51.224;22.506;2023-07-08T04:38:59;10.90;;;7.18;;
62401;SDS011;48440;51.224;22.506;2023-07-08T04:41:25;10.82;;;7.20;;
62401;SDS011;48440;51.224;22.506;2023-07-08T04:43:51;10.35;;;7.13;;
62401;SDS011;48440;51.224;22.506;2023-07-08T04:47:03;11.50;;;6.40;;
62401;SDS011;48440;51.224;22.506;2023-07-08T04:49:06;10.15;;;5.70;;
62401;SDS011;48440;51.224;22.506;2023-07-08T04:51:34;9.27;;;6.05;;
62401;SDS011;48440;51.224;22.506;2023-07-08T04:54:00;8.70;;;6.10;;
62401;SDS011;48440;51.224;22.506;2023-07-08T04:56:34;8.18;;;5.63;;
62401;SDS011;48440;51.224;22.506;2023-07-08T04:59:02;10.50;;;5.28;;
62401;SDS011;48440;51.224;22.506;2023-07-08T05:01:28;8.98;;;5.07;;
62401;SDS011;48440;51.224;22.506;2023-07-08T05:03:53;6.35;;;4.88;;
62401;SDS011;48440;51.224;22.506;2023-07-08T05:06:19;7.40;;;5.20;;
62401;SDS011;48440;51.224;22.506;2023-07-08T05:08:44;7.30;;;4.82;;
62401;SDS011;48440;51.224;22.506;2023-07-08T05:11:09;6.28;;;5.13;;
62401;SDS011;48440;51.224;22.506;2023-07-08T05:13:35;6.35;;;4.57;;
62401;SDS011;48440;51.224;22.506;2023-07-08T05:16:00;7.32;;;4.25;;
62401;SDS011;48440;51.224;22.506;2023-07-08T05:18:26;8.20;;;4.07;;
62401;SDS011;48440;51.224;22.506;2023-07-08T05:20:52;8.13;;;3.97;;
62401;SDS011;48440;51.224;22.506;2023-07-08T05:23:17;7.32;;;3.90;;
62401;SDS011;48440;51.224;22.506;2023-07-08T05:25:43;7.22;;;3.45;;
62401;SDS011;48440;51.224;22.506;2023-07-08T05:28:08;6.95;;;3.30;;
62401;SDS011;48440;51.224;22.506;2023-07-08T05:30:34;5.22;;;3.55;;
62401;SDS011;48440;51.224;22.506;2023-07-08T05:33:00;5.22;;;3.45;;
62401;SDS011;48440;51.224;22.506;2023-07-08T05:35:26;7.20;;;3.72;;
62401;SDS011;48440;51.224;22.506;2023-07-08T05:37:51;5.85;;;3.60;;
62401;SDS011;48440;51.224;22.506;2023-07-08T05:40:17;5.05;;;3.45;;
62401;SDS011;48440;51.224;22.506;2023-07-08T05:42:42;4.72;;;3.22;;
62401;SDS011;48440;51.224;22.506;2023-07-08T05:45:08;5.15;;;3.63;;
62401;SDS011;48440;51.224;22.506;2023-07-08T05:47:35;4.65;;;3.42;;
62401;SDS011;48440;51.224;22.506;2023-07-08T05:50:01;5.60;;;3.70;;
62401;SDS011;48440;51.224;22.506;2023-07-08T05:52:27;5.07;;;3.47;;
62401;SDS011;48440;51.224;22.506;2023-07-08T05:54:52;9.02;;;3.70;;
62401;SDS011;48440;51.224;22.506;2023-07-08T05:57:18;4.00;;;3.15;;
62401;SDS011;48440;51.224;22.506;2023-07-08T05:59:43;6.40;;;3.40;;
62401;SDS011;48440;51.224;22.506;2023-07-08T06:02:10;6.47;;;3.70;;
62401;SDS011;48440;51.224;22.506;2023-07-08T06:04:37;6.28;;;4.20;;
62401;SDS011;48440;51.224;22.506;2023-07-08T06:07:03;7.25;;;3.50;;
62401;SDS011;48440;51.224;22.506;2023-07-08T06:09:28;5.85;;;3.42;;
62401;SDS011;48440;51.224;22.506;2023-07-08T06:11:54;5.47;;;3.55;;
62401;SDS011;48440;51.224;22.506;2023-07-08T06:14:19;6.22;;;3.40;;
62401;SDS011;48440;51.224;22.506;2023-07-08T06:16:45;4.45;;;2.88;;
62401;SDS011;48440;51.224;22.506;2023-07-08T06:19:11;6.25;;;2.88;;
62401;SDS011;48440;51.224;22.506;2023-07-08T06:21:36;4.20;;;3.30;;
62401;SDS011;48440;51.224;22.506;2023-07-08T06:24:02;5.22;;;2.38;;
62401;SDS011;48440;51.224;22.506;2023-07-08T06:26:27;4.03;;;2.78;;
62401;SDS011;48440;51.224;22.506;2023-07-08T06:28:53;4.45;;;2.90;;
62401;SDS011;48440;51.224;22.506;2023-07-08T06:31:18;4.63;;;2.53;;
62401;SDS011;48440;51.224;22.506;2023-07-08T06:33:44;6.32;;;2.67;;
62401;SDS011;48440;51.224;22.506;2023-07-08T06:36:09;3.50;;;2.45;;
62401;SDS011;48440;51.224;22.506;2023-07-08T06:38:37;3.88;;;2.45;;
62401;SDS011;48440;51.224;22.506;2023-07-08T06:41:03;5.60;;;2.40;;
62401;SDS011;48440;51.224;22.506;2023-07-08T06:43:28;4.60;;;2.63;;
62401;SDS011;48440;51.224;22.506;2023-07-08T06:45:54;3.42;;;2.60;;
62401;SDS011;48440;51.224;22.506;2023-07-08T06:48:19;3.65;;;2.00;;
62401;SDS011;48440;51.224;22.506;2023-07-08T06:50:48;4.32;;;2.33;;
62401;SDS011;48440;51.224;22.506;2023-07-08T06:53:16;4.35;;;2.60;;
62401;SDS011;48440;51.224;22.506;2023-07-08T06:55:45;4.68;;;2.30;;
62401;SDS011;48440;51.224;22.506;2023-07-08T06:58:11;5.53;;;2.55;;
62401;SDS011;48440;51.224;22.506;2023-07-08T07:00:37;4.65;;;2.65;;
62401;SDS011;48440;51.224;22.506;2023-07-08T07:03:06;4.47;;;2.47;;
62401;SDS011;48440;51.224;22.506;2023-07-08T07:05:32;4.80;;;2.38;;
62401;SDS011;48440;51.224;22.506;2023-07-08T07:07:58;4.95;;;2.70;;
62401;SDS011;48440;51.224;22.506;2023-07-08T07:10:24;3.17;;;2.25;;
62401;SDS011;48440;51.224;22.506;2023-07-08T07:12:50;4.07;;;2.58;;
62401;SDS011;48440;51.224;22.506;2023-07-08T07:15:15;3.15;;;2.17;;
62401;SDS011;48440;51.224;22.506;2023-07-08T07:17:41;3.78;;;2.20;;
62401;SDS011;48440;51.224;22.506;2023-07-08T07:20:06;4.03;;;2.50;;
62401;SDS011;48440;51.224;22.506;2023-07-08T07:22:32;4.45;;;2.30;;
62401;SDS011;48440;51.224;22.506;2023-07-08T07:24:58;3.42;;;2.28;;
62401;SDS011;48440;51.224;22.506;2023-07-08T07:27:25;3.13;;;2.20;;
62401;SDS011;48440;51.224;22.506;2023-07-08T07:29:50;3.15;;;2.20;;
62401;SDS011;48440;51.224;22.506;2023-07-08T07:32:17;2.95;;;2.10;;
62401;SDS011;48440;51.224;22.506;2023-07-08T07:34:47;3.55;;;2.22;;
62401;SDS011;48440;51.224;22.506;2023-07-08T07:37:15;3.42;;;2.08;;
62401;SDS011;48440;51.224;22.506;2023-07-08T07:39:42;3.17;;;2.20;;
62401;SDS011;48440;51.224;22.506;2023-07-08T07:42:08;3.10;;;2.15;;
62401;SDS011;48440;51.224;22.506;2023-07-08T07:44:35;2.65;;;2.17;;
62401;SDS011;48440;51.224;22.506;2023-07-08T07:47:01;3.85;;;2.30;;
62401;SDS011;48440;51.224;22.506;2023-07-08T07:49:28;2.85;;;2.22;;
62401;SDS011;48440;51.224;22.506;2023-07-08T07:51:54;3.70;;;2.20;;
62401;SDS011;48440;51.224;22.506;2023-07-08T07:54:19;4.07;;;2.55;;
62401;SDS011;48440;51.224;22.506;2023-07-08T07:56:44;3.15;;;2.35;;
62401;SDS011;48440;51.224;22.506;2023-07-08T07:59:10;3.22;;;2.20;;
62401;SDS011;48440;51.224;22.506;2023-07-08T08:01:36;4.82;;;2.10;;
62401;SDS011;48440;51.224;22.506;2023-07-08T08:04:01;3.65;;;2.17;;
62401;SDS011;48440;51.224;22.506;2023-07-08T08:06:27;5.03;;;2.42;;
62401;SDS011;48440;51.224;22.506;2023-07-08T08:08:52;3.35;;;2.20;;
62401;SDS011;48440;51.224;22.506;2023-07-08T08:11:18;4.43;;;2.28;;
62401;SDS011;48440;51.224;22.506;2023-07-08T08:13:44;7.75;;;5.10;;
62401;SDS011;48440;51.224;22.506;2023-07-08T08:16:10;4.53;;;3.50;;
62401;SDS011;48440;51.224;22.506;2023-07-08T08:18:35;3.45;;;2.30;;
62401;SDS011;48440;51.224;22.506;2023-07-08T08:21:24;3.65;;;2.65;;
62401;SDS011;48440;51.224;22.506;2023-07-08T08:23:49;4.13;;;2.83;;
62401;SDS011;48440;51.224;22.506;2023-07-08T08:26:15;4.20;;;2.38;;
62401;SDS011;48440;51.224;22.506;2023-07-08T08:28:40;3.80;;;2.20;;
62401;SDS011;48440;51.224;22.506;2023-07-08T08:31:06;3.65;;;2.25;;
62401;SDS011;48440;51.224;22.506;2023-07-08T08:33:32;3.97;;;2.53;;
62401;SDS011;48440;51.224;22.506;2023-07-08T08:36:00;4.43;;;2.25;;
62401;SDS011;48440;51.224;22.506;2023-07-08T08:38:28;4.20;;;2.55;;
62401;SDS011;48440;51.224;22.506;2023-07-08T08:40:53;3.97;;;2.50;;
62401;SDS011;48440;51.224;22.506;2023-07-08T08:43:21;6.72;;;2.88;;
62401;SDS011;48440;51.224;22.506;2023-07-08T08:48:27;5.75;;;3.70;;
62401;SDS011;48440;51.224;22.506;2023-07-08T08:50:56;5.07;;;3.30;;
62401;SDS011;48440;51.224;22.506;2023-07-08T08:53:27;3.83;;;2.60;;
62401;SDS011;48440;51.224;22.506;2023-07-08T08:56:39;5.55;;;2.40;;
62401;SDS011;48440;51.224;22.506;2023-07-08T09:04:15;4.38;;;2.90;;
62401;SDS011;48440;51.224;22.506;2023-07-08T09:06:45;4.30;;;3.40;;
62401;SDS011;48440;51.224;22.506;2023-07-08T09:10:01;3.92;;;2.70;;
62401;SDS011;48440;51.224;22.506;2023-07-08T09:12:10;5.57;;;2.15;;
62401;SDS011;48440;51.224;22.506;2023-07-08T09:14:39;6.28;;;2.60;;
62401;SDS011;48440;51.224;22.506;2023-07-08T09:19:57;5.90;;;2.05;;
62401;SDS011;48440;51.224;22.506;2023-07-08T09:27:41;11.02;;;2.53;;
62401;SDS011;48440;51.224;22.506;2023-07-08T09:30:13;3.47;;;2.33;;
62401;SDS011;48440;51.224;22.506;2023-07-08T09:32:39;3.28;;;2.28;;
62401;SDS011;48440;51.224;22.506;2023-07-08T09:35:06;4.93;;;2.70;;
62401;SDS011;48440;51.224;22.506;2023-07-08T09:37:34;5.50;;;4.28;;
62401;SDS011;48440;51.224;22.506;2023-07-08T09:40:14;5.95;;;3.85;;
62401;SDS011;48440;51.224;22.506;2023-07-08T09:42:44;5.37;;;3.93;;
62401;SDS011;48440;51.224;22.506;2023-07-08T09:45:16;4.45;;;2.80;;
62401;SDS011;48440;51.224;22.506;2023-07-08T09:47:46;6.47;;;3.53;;
62401;SDS011;48440;51.224;22.506;2023-07-08T09:50:16;4.55;;;2.90;;
62401;SDS011;48440;51.224;22.506;2023-07-08T09:52:43;8.00;;;4.85;;
62401;SDS011;48440;51.224;22.506;2023-07-08T09:55:11;8.98;;;5.50;;
62401;SDS011;48440;51.224;22.506;2023-07-08T09:57:37;6.00;;;3.92;;
62401;SDS011;48440;51.224;22.506;2023-07-08T10:00:49;4.25;;;2.95;;
62401;SDS011;48440;51.224;22.506;2023-07-08T10:03:27;4.93;;;3.90;;
62401;SDS011;48440;51.224;22.506;2023-07-08T10:05:57;5.47;;;3.95;;
62401;SDS011;48440;51.224;22.506;2023-07-08T10:08:37;5.13;;;2.40;;
62401;SDS011;48440;51.224;22.506;2023-07-08T10:13:49;3.28;;;2.20;;
62401;SDS011;48440;51.224;22.506;2023-07-08T10:16:22;3.47;;;2.50;;
62401;SDS011;48440;51.224;22.506;2023-07-08T10:18:50;5.10;;;2.33;;
62401;SDS011;48440;51.224;22.506;2023-07-08T10:26:38;6.70;;;2.97;;
62401;SDS011;48440;51.224;22.506;2023-07-08T10:31:50;3.33;;;2.78;;
62401;SDS011;48440;51.224;22.506;2023-07-08T10:38:00;6.00;;;4.10;;
62401;SDS011;48440;51.224;22.506;2023-07-08T10:43:01;2.72;;;2.10;;
62401;SDS011;48440;51.224;22.506;2023-07-08T10:45:34;4.55;;;2.35;;
62401;SDS011;48440;51.224;22.506;2023-07-08T10:51:21;4.30;;;2.60;;
62401;SDS011;48440;51.224;22.506;2023-07-08T10:54:05;3.40;;;2.53;;
62401;SDS011;48440;51.224;22.506;2023-07-08T10:56:54;3.33;;;2.50;;
62401;SDS011;48440;51.224;22.506;2023-07-08T11:07:15;5.55;;;2.67;;
62401;SDS011;48440;51.224;22.506;2023-07-08T11:09:53;3.58;;;2.42;;
62401;SDS011;48440;51.224;22.506;2023-07-08T11:15:37;5.43;;;2.97;;
62401;SDS011;48440;51.224;22.506;2023-07-08T11:18:14;2.78;;;2.28;;
62401;SDS011;48440;51.224;22.506;2023-07-08T11:20:52;3.20;;;2.40;;
62401;SDS011;48440;51.224;22.506;2023-07-08T11:26:15;4.18;;;2.63;;
62401;SDS011;48440;51.224;22.506;2023-07-08T11:28:40;4.65;;;2.45;;
62401;SDS011;48440;51.224;22.506;2023-07-08T11:31:08;2.58;;;2.28;;
62401;SDS011;48440;51.224;22.506;2023-07-08T11:33:33;3.08;;;2.45;;
62401;SDS011;48440;51.224;22.506;2023-07-08T11:36:00;4.57;;;2.08;;
62401;SDS011;48440;51.224;22.506;2023-07-08T11:38:28;4.70;;;2.20;;
62401;SDS011;48440;51.224;22.506;2023-07-08T11:43:23;2.58;;;2.03;;
62401;SDS011;48440;51.224;22.506;2023-07-08T11:45:50;2.53;;;2.17;;
62401;SDS011;48440;51.224;22.506;2023-07-08T11:48:22;3.92;;;2.05;;
62401;SDS011;48440;51.224;22.506;2023-07-08T11:50:48;4.13;;;2.08;;
62401;SDS011;48440;51.224;22.506;2023-07-08T11:56:06;2.72;;;2.25;;
62401;SDS011;48440;51.224;22.506;2023-07-08T12:03:51;3.85;;;2.60;;
62401;SDS011;48440;51.224;22.506;2023-07-08T12:08:55;3.83;;;2.17;;
62401;SDS011;48440;51.224;22.506;2023-07-08T12:11:26;3.80;;;2.50;;
62401;SDS011;48440;51.224;22.506;2023-07-08T12:13:56;5.25;;;2.10;;
62401;SDS011;48440;51.224;22.506;2023-07-08T12:16:24;3.10;;;2.45;;
62401;SDS011;48440;51.224;22.506;2023-07-08T12:18:51;3.17;;;2.40;;
62401;SDS011;48440;51.224;22.506;2023-07-08T12:21:18;4.35;;;2.70;;
62401;SDS011;48440;51.224;22.506;2023-07-08T12:23:44;4.35;;;2.60;;
62401;SDS011;48440;51.224;22.506;2023-07-08T12:26:11;4.03;;;2.40;;
62401;SDS011;48440;51.224;22.506;2023-07-08T12:28:37;4.43;;;3.30;;
62401;SDS011;48440;51.224;22.506;2023-07-08T12:31:09;3.97;;;2.70;;
62401;SDS011;48440;51.224;22.506;2023-07-08T12:33:40;5.13;;;3.28;;
62401;SDS011;48440;51.224;22.506;2023-07-08T12:36:06;3.45;;;2.80;;
62401;SDS011;48440;51.224;22.506;2023-07-08T12:38:44;4.97;;;3.00;;
62401;SDS011;48440;51.224;22.506;2023-07-08T12:41:13;3.20;;;2.47;;
62401;SDS011;48440;51.224;22.506;2023-07-08T12:43:43;5.07;;;2.55;;
62401;SDS011;48440;51.224;22.506;2023-07-08T12:46:12;4.00;;;2.33;;
62401;SDS011;48440;51.224;22.506;2023-07-08T12:48:39;3.95;;;2.47;;
62401;SDS011;48440;51.224;22.506;2023-07-08T12:51:12;4.97;;;2.70;;
62401;SDS011;48440;51.224;22.506;2023-07-08T12:53:43;3.05;;;2.33;;
62401;SDS011;48440;51.224;22.506;2023-07-08T12:56:09;4.90;;;2.53;;
62401;SDS011;48440;51.224;22.506;2023-07-08T12:58:42;2.70;;;2.10;;
62401;SDS011;48440;51.224;22.506;2023-07-08T13:01:12;4.45;;;2.28;;
62401;SDS011;48440;51.224;22.506;2023-07-08T13:03:43;3.33;;;2.00;;
62401;SDS011;48440;51.224;22.506;2023-07-08T13:06:12;2.85;;;2.10;;
62401;SDS011;48440;51.224;22.506;2023-07-08T13:08:42;3.70;;;2.10;;
62401;SDS011;48440;51.224;22.506;2023-07-08T13:11:11;3.92;;;2.20;;
62401;SDS011;48440;51.224;22.506;2023-07-08T13:13:44;4.30;;;2.05;;
62401;SDS011;48440;51.224;22.506;2023-07-08T13:16:18;3.78;;;2.33;;
62401;SDS011;48440;51.224;22.506;2023-07-08T13:18:44;4.72;;;2.38;;
62401;SDS011;48440;51.224;22.506;2023-07-08T13:21:12;3.53;;;2.47;;
62401;SDS011;48440;51.224;22.506;2023-07-08T13:23:40;3.75;;;2.20;;
62401;SDS011;48440;51.224;22.506;2023-07-08T13:26:16;6.32;;;2.70;;
62401;SDS011;48440;51.224;22.506;2023-07-08T13:28:44;3.00;;;2.30;;
62401;SDS011;48440;51.224;22.506;2023-07-08T13:31:15;3.30;;;2.30;;
62401;SDS011;48440;51.224;22.506;2023-07-08T13:33:47;3.47;;;2.50;;
62401;SDS011;48440;51.224;22.506;2023-07-08T13:36:16;3.00;;;2.10;;
62401;SDS011;48440;51.224;22.506;2023-07-08T13:38:43;2.00;;;1.77;;
62401;SDS011;48440;51.224;22.506;2023-07-08T13:41:16;2.75;;;2.10;;
62401;SDS011;48440;51.224;22.506;2023-07-08T13:43:45;3.60;;;1.98;;
62401;SDS011;48440;51.224;22.506;2023-07-08T13:48:54;2.80;;;2.17;;
62401;SDS011;48440;51.224;22.506;2023-07-08T13:51:20;3.05;;;2.00;;
62401;SDS011;48440;51.224;22.506;2023-07-08T13:53:48;3.17;;;2.00;;
62401;SDS011;48440;51.224;22.506;2023-07-08T13:56:32;3.03;;;2.10;;
62401;SDS011;48440;51.224;22.506;2023-07-08T14:01:29;3.10;;;2.20;;
62401;SDS011;48440;51.224;22.506;2023-07-08T14:03:56;3.38;;;2.00;;
62401;SDS011;48440;51.224;22.506;2023-07-08T14:06:35;3.35;;;2.30;;
62401;SDS011;48440;51.224;22.506;2023-07-08T14:09:13;2.95;;;2.00;;
62401;SDS011;48440;51.224;22.506;2023-07-08T14:11:41;2.72;;;1.88;;
62401;SDS011;48440;51.224;22.506;2023-07-08T14:14:07;3.67;;;2.30;;
62401;SDS011;48440;51.224;22.506;2023-07-08T14:16:34;2.50;;;1.80;;
62401;SDS011;48440;51.224;22.506;2023-07-08T14:19:03;3.45;;;2.08;;
62401;SDS011;48440;51.224;22.506;2023-07-08T14:21:31;2.88;;;2.00;;
62401;SDS011;48440;51.224;22.506;2023-07-08T14:23:58;2.58;;;1.73;;
62401;SDS011;48440;51.224;22.506;2023-07-08T14:26:23;4.30;;;1.95;;
62401;SDS011;48440;51.224;22.506;2023-07-08T14:28:49;4.68;;;2.10;;
62401;SDS011;48440;51.224;22.506;2023-07-08T14:31:15;4.13;;;2.15;;
62401;SDS011;48440;51.224;22.506;2023-07-08T14:33:45;4.90;;;1.88;;
62401;SDS011;48440;51.224;22.506;2023-07-08T14:36:11;2.88;;;1.88;;
62401;SDS011;48440;51.224;22.506;2023-07-08T14:38:37;2.83;;;2.10;;
62401;SDS011;48440;51.224;22.506;2023-07-08T14:41:02;3.20;;;2.10;;
62401;SDS011;48440;51.224;22.506;2023-07-08T14:43:30;4.88;;;2.08;;
62401;SDS011;48440;51.224;22.506;2023-07-08T14:45:59;5.85;;;2.40;;
62401;SDS011;48440;51.224;22.506;2023-07-08T14:48:29;3.05;;;2.17;;
62401;SDS011;48440;51.224;22.506;2023-07-08T14:50:56;2.83;;;2.30;;
62401;SDS011;48440;51.224;22.506;2023-07-08T14:53:22;3.88;;;1.90;;
62401;SDS011;48440;51.224;22.506;2023-07-08T14:55:49;2.50;;;2.03;;
62401;SDS011;48440;51.224;22.506;2023-07-08T14:58:28;3.65;;;1.90;;
62401;SDS011;48440;51.224;22.506;2023-07-08T15:00:56;3.47;;;2.30;;
62401;SDS011;48440;51.224;22.506;2023-07-08T15:03:25;3.35;;;2.00;;
62401;SDS011;48440;51.224;22.506;2023-07-08T15:05:51;3.33;;;2.20;;
62401;SDS011;48440;51.224;22.506;2023-07-08T15:08:17;3.75;;;2.30;;
62401;SDS011;48440;51.224;22.506;2023-07-08T15:10:52;3.75;;;2.03;;
62401;SDS011;48440;51.224;22.506;2023-07-08T15:13:18;1.98;;;1.75;;
62401;SDS011;48440;51.224;22.506;2023-07-08T15:15:45;3.40;;;1.92;;
62401;SDS011;48440;51.224;22.506;2023-07-08T15:18:12;2.67;;;1.92;;
62401;SDS011;48440;51.224;22.506;2023-07-08T15:20:40;3.40;;;1.80;;
62401;SDS011;48440;51.224;22.506;2023-07-08T15:23:07;2.45;;;1.80;;
62401;SDS011;48440;51.224;22.506;2023-07-08T15:25:33;3.58;;;2.15;;
62401;SDS011;48440;51.224;22.506;2023-07-08T15:28:00;3.50;;;2.00;;
62401;SDS011;48440;51.224;22.506;2023-07-08T15:30:28;3.42;;;1.88;;
62401;SDS011;48440;51.224;22.506;2023-07-08T15:32:54;3.42;;;2.13;;
62401;SDS011;48440;51.224;22.506;2023-07-08T15:35:21;2.80;;;2.10;;
62401;SDS011;48440;51.224;22.506;2023-07-08T15:37:55;2.65;;;1.63;;
62401;SDS011;48440;51.224;22.506;2023-07-08T15:40:21;2.72;;;1.80;;
62401;SDS011;48440;51.224;22.506;2023-07-08T15:42:51;2.10;;;1.90;;
62401;SDS011;48440;51.224;22.506;2023-07-08T15:45:23;2.45;;;2.00;;
62401;SDS011;48440;51.224;22.506;2023-07-08T15:47:51;4.82;;;2.15;;
62401;SDS011;48440;51.224;22.506;2023-07-08T15:50:19;3.03;;;2.30;;
62401;SDS011;48440;51.224;22.506;2023-07-08T15:52:46;2.78;;;1.90;;
62401;SDS011;48440;51.224;22.506;2023-07-08T15:55:12;3.95;;;1.70;;